sensor_id;sensor_type;location;lat;lon;timestamp;P1;durP1;ratioP1;P2;durP2;ratioP2
18114;SDS011;9184;54.390;18.620;2023-07-29T00:00:07;22.20;;;16.77;;
18114;SDS011;9184;54.390;18.620;2023-07-29T00:00:37;24.98;;;16.20;;
18114;SDS011;9184;54.390;18.620;2023-07-29T00:01:08;20.58;;;17.02;;
18114;SDS011;9184;54.390;18.620;2023-07-29T00:01:40;20.05;;;16.52;;
18114;SDS011;9184;54.390;18.620;2023-07-29T00:02:11;20.55;;;17.08;;
18114;SDS011;9184;54.390;18.620;2023-07-29T00:02:42;24.48;;;17.15;;
18114;SDS011;9184;54.390;18.620;2023-07-29T00:03:12;20.83;;;16.15;;
18114;SDS011;9184;54.390;18.620;2023-07-29T00:03:43;24.70;;;17.25;;
18114;SDS011;9184;54.390;18.620;2023-07-29T00:04:14;21.52;;;18.17;;
18114;SDS011;9184;54.390;18.620;2023-07-29T00:04:44;24.23;;;17.90;;
18114;SDS011;9184;54.390;18.620;2023-07-29T00:05:15;23.05;;;17.38;;
18114;SDS011;9184;54.390;18.620;2023-07-29T00:05:45;19.17;;;17.02;;
18114;SDS011;9184;54.390;18.620;2023-07-29T00:06:17;21.48;;;17.63;;
18114;SDS011;9184;54.390;18.620;2023-07-29T00:06:47;17.92;;;15.88;;
18114;SDS011;9184;54.390;18.620;2023-07-29T00:07:18;20.90;;;16.85;;
18114;SDS011;9184;54.390;18.620;2023-07-29T00:07:48;20.88;;;16.65;;
18114;SDS011;9184;54.390;18.620;2023-07-29T00:08:19;18.02;;;15.90;;
18114;SDS011;9184;54.390;18.620;2023-07-29T00:08:50;24.00;;;17.60;;
18114;SDS011;9184;54.390;18.620;2023-07-29T00:09:20;21.95;;;16.90;;
18114;SDS011;9184;54.390;18.620;2023-07-29T00:09:51;19.70;;;16.75;;
18114;SDS011;9184;54.390;18.620;2023-07-29T00:10:22;22.30;;;16.73;;
18114;SDS011;9184;54.390;18.620;2023-07-29T00:10:53;21.13;;;16.30;;
18114;SDS011;9184;54.390;18.620;2023-07-29T00:11:23;18.98;;;16.73;;
18114;SDS011;9184;54.390;18.620;2023-07-29T00:11:54;23.02;;;16.70;;
18114;SDS011;9184;54.390;18.620;2023-07-29T00:12:25;22.00;;;17.10;;
18114;SDS011;9184;54.390;18.620;2023-07-29T00:12:57;22.55;;;18.08;;
18114;SDS011;9184;54.390;18.620;2023-07-29T00:13:27;21.80;;;17.67;;
18114;SDS011;9184;54.390;18.620;2023-07-29T00:13:59;22.67;;;18.20;;
18114;SDS011;9184;54.390;18.620;2023-07-29T00:14:29;26.80;;;19.55;;
18114;SDS011;9184;54.390;18.620;2023-07-29T00:15:00;20.65;;;16.83;;
18114;SDS011;9184;54.390;18.620;2023-07-29T00:15:30;20.00;;;17.65;;
18114;SDS011;9184;54.390;18.620;2023-07-29T00:16:02;22.83;;;18.70;;
18114;SDS011;9184;54.390;18.620;2023-07-29T00:16:32;20.88;;;17.35;;
18114;SDS011;9184;54.390;18.620;2023-07-29T00:17:03;20.63;;;17.08;;
18114;SDS011;9184;54.390;18.620;2023-07-29T00:17:34;21.90;;;16.85;;
18114;SDS011;9184;54.390;18.620;2023-07-29T00:18:04;20.55;;;17.33;;
18114;SDS011;9184;54.390;18.620;2023-07-29T00:18:36;26.15;;;17.52;;
18114;SDS011;9184;54.390;18.620;2023-07-29T00:19:06;24.00;;;17.65;;
18114;SDS011;9184;54.390;18.620;2023-07-29T00:19:36;24.92;;;18.60;;
18114;SDS011;9184;54.390;18.620;2023-07-29T00:20:07;20.45;;;17.60;;
18114;SDS011;9184;54.390;18.620;2023-07-29T00:20:39;21.10;;;17.55;;
18114;SDS011;9184;54.390;18.620;2023-07-29T00:21:09;22.50;;;17.73;;
18114;SDS011;9184;54.390;18.620;2023-07-29T00:21:40;20.25;;;16.88;;
18114;SDS011;9184;54.390;18.620;2023-07-29T00:22:11;20.90;;;16.90;;
18114;SDS011;9184;54.390;18.620;2023-07-29T00:22:42;21.27;;;17.35;;
18114;SDS011;9184;54.390;18.620;2023-07-29T00:23:16;24.33;;;17.52;;
18114;SDS011;9184;54.390;18.620;2023-07-29T00:23:49;21.48;;;17.65;;
18114;SDS011;9184;54.390;18.620;2023-07-29T00:24:19;20.65;;;17.38;;
18114;SDS011;9184;54.390;18.620;2023-07-29T00:24:51;21.35;;;17.95;;
18114;SDS011;9184;54.390;18.620;2023-07-29T00:25:22;23.20;;;17.15;;
18114;SDS011;9184;54.390;18.620;2023-07-29T00:25:52;20.55;;;16.45;;
18114;SDS011;9184;54.390;18.620;2023-07-29T00:26:22;20.10;;;16.40;;
18114;SDS011;9184;54.390;18.620;2023-07-29T00:26:56;25.98;;;17.75;;
18114;SDS011;9184;54.390;18.620;2023-07-29T00:27:26;22.92;;;17.42;;
18114;SDS011;9184;54.390;18.620;2023-07-29T00:27:58;18.60;;;16.55;;
18114;SDS011;9184;54.390;18.620;2023-07-29T00:28:29;20.73;;;16.75;;
18114;SDS011;9184;54.390;18.620;2023-07-29T00:29:00;22.00;;;18.67;;
18114;SDS011;9184;54.390;18.620;2023-07-29T00:29:31;18.95;;;16.70;;
18114;SDS011;9184;54.390;18.620;2023-07-29T00:30:01;20.25;;;18.15;;
18114;SDS011;9184;54.390;18.620;2023-07-29T00:30:32;24.63;;;16.83;;
18114;SDS011;9184;54.390;18.620;2023-07-29T00:31:03;19.70;;;16.33;;
18114;SDS011;9184;54.390;18.620;2023-07-29T00:31:33;23.30;;;17.58;;
18114;SDS011;9184;54.390;18.620;2023-07-29T00:32:04;21.08;;;17.35;;
18114;SDS011;9184;54.390;18.620;2023-07-29T00:32:35;19.10;;;16.48;;
18114;SDS011;9184;54.390;18.620;2023-07-29T00:33:06;27.70;;;18.10;;
18114;SDS011;9184;54.390;18.620;2023-07-29T00:33:37;22.10;;;18.17;;
18114;SDS011;9184;54.390;18.620;2023-07-29T00:34:07;23.27;;;17.30;;
18114;SDS011;9184;54.390;18.620;2023-07-29T00:34:38;21.15;;;16.40;;
18114;SDS011;9184;54.390;18.620;2023-07-29T00:35:09;22.38;;;17.67;;
18114;SDS011;9184;54.390;18.620;2023-07-29T00:35:40;26.85;;;17.40;;
18114;SDS011;9184;54.390;18.620;2023-07-29T00:36:10;22.80;;;17.70;;
18114;SDS011;9184;54.390;18.620;2023-07-29T00:36:40;21.55;;;17.52;;
18114;SDS011;9184;54.390;18.620;2023-07-29T00:37:12;22.15;;;18.13;;
18114;SDS011;9184;54.390;18.620;2023-07-29T00:37:42;26.48;;;18.25;;
18114;SDS011;9184;54.390;18.620;2023-07-29T00:38:13;19.98;;;16.88;;
18114;SDS011;9184;54.390;18.620;2023-07-29T00:38:43;20.85;;;17.55;;
18114;SDS011;9184;54.390;18.620;2023-07-29T00:39:15;20.10;;;17.83;;
18114;SDS011;9184;54.390;18.620;2023-07-29T00:39:45;27.48;;;18.20;;
18114;SDS011;9184;54.390;18.620;2023-07-29T00:40:17;22.75;;;16.85;;
18114;SDS011;9184;54.390;18.620;2023-07-29T00:40:49;20.02;;;17.42;;
18114;SDS011;9184;54.390;18.620;2023-07-29T00:41:20;25.80;;;18.30;;
18114;SDS011;9184;54.390;18.620;2023-07-29T00:41:51;21.73;;;16.23;;
18114;SDS011;9184;54.390;18.620;2023-07-29T00:42:22;24.50;;;18.30;;
18114;SDS011;9184;54.390;18.620;2023-07-29T00:42:52;23.85;;;18.17;;
18114;SDS011;9184;54.390;18.620;2023-07-29T00:43:25;25.58;;;18.45;;
18114;SDS011;9184;54.390;18.620;2023-07-29T00:43:55;23.17;;;17.35;;
18114;SDS011;9184;54.390;18.620;2023-07-29T00:44:26;22.00;;;17.77;;
18114;SDS011;9184;54.390;18.620;2023-07-29T00:44:56;22.10;;;18.40;;
18114;SDS011;9184;54.390;18.620;2023-07-29T00:45:28;22.30;;;17.92;;
18114;SDS011;9184;54.390;18.620;2023-07-29T00:45:59;21.50;;;18.30;;
18114;SDS011;9184;54.390;18.620;2023-07-29T00:46:29;20.52;;;18.27;;
18114;SDS011;9184;54.390;18.620;2023-07-29T00:47:01;21.48;;;17.55;;
18114;SDS011;9184;54.390;18.620;2023-07-29T00:47:32;27.30;;;19.73;;
18114;SDS011;9184;54.390;18.620;2023-07-29T00:48:03;22.23;;;18.60;;
18114;SDS011;9184;54.390;18.620;2023-07-29T00:48:34;23.50;;;18.63;;
18114;SDS011;9184;54.390;18.620;2023-07-29T00:49:05;22.88;;;19.17;;
18114;SDS011;9184;54.390;18.620;2023-07-29T00:49:36;25.02;;;19.48;;
18114;SDS011;9184;54.390;18.620;2023-07-29T00:50:06;23.20;;;18.85;;
18114;SDS011;9184;54.390;18.620;2023-07-29T00:50:37;22.33;;;18.88;;
18114;SDS011;9184;54.390;18.620;2023-07-29T00:51:09;24.63;;;18.65;;
18114;SDS011;9184;54.390;18.620;2023-07-29T00:51:39;22.27;;;18.08;;
18114;SDS011;9184;54.390;18.620;2023-07-29T00:52:09;27.38;;;18.10;;
18114;SDS011;9184;54.390;18.620;2023-07-29T00:52:42;23.45;;;18.48;;
18114;SDS011;9184;54.390;18.620;2023-07-29T00:53:13;23.00;;;18.50;;
18114;SDS011;9184;54.390;18.620;2023-07-29T00:53:44;23.30;;;17.80;;
18114;SDS011;9184;54.390;18.620;2023-07-29T00:54:14;25.05;;;18.02;;
18114;SDS011;9184;54.390;18.620;2023-07-29T00:54:45;21.27;;;18.33;;
18114;SDS011;9184;54.390;18.620;2023-07-29T00:55:16;22.40;;;16.65;;
18114;SDS011;9184;54.390;18.620;2023-07-29T00:55:47;19.83;;;17.70;;
18114;SDS011;9184;54.390;18.620;2023-07-29T00:56:17;20.48;;;17.75;;
18114;SDS011;9184;54.390;18.620;2023-07-29T00:56:48;22.08;;;17.83;;
18114;SDS011;9184;54.390;18.620;2023-07-29T00:57:19;21.65;;;18.00;;
18114;SDS011;9184;54.390;18.620;2023-07-29T00:57:50;22.63;;;17.77;;
18114;SDS011;9184;54.390;18.620;2023-07-29T00:58:24;22.40;;;17.73;;
18114;SDS011;9184;54.390;18.620;2023-07-29T00:58:55;21.63;;;17.98;;
18114;SDS011;9184;54.390;18.620;2023-07-29T00:59:28;21.67;;;18.13;;
18114;SDS011;9184;54.390;18.620;2023-07-29T01:00:02;24.10;;;17.75;;
18114;SDS011;9184;54.390;18.620;2023-07-29T01:00:34;23.60;;;17.40;;
18114;SDS011;9184;54.390;18.620;2023-07-29T01:01:04;24.77;;;17.13;;
18114;SDS011;9184;54.390;18.620;2023-07-29T01:01:36;22.08;;;17.95;;
18114;SDS011;9184;54.390;18.620;2023-07-29T01:02:06;22.98;;;18.13;;
18114;SDS011;9184;54.390;18.620;2023-07-29T01:02:37;24.30;;;18.05;;
18114;SDS011;9184;54.390;18.620;2023-07-29T01:03:07;25.48;;;17.42;;
18114;SDS011;9184;54.390;18.620;2023-07-29T01:03:39;25.63;;;18.38;;
18114;SDS011;9184;54.390;18.620;2023-07-29T01:04:09;19.67;;;17.40;;
18114;SDS011;9184;54.390;18.620;2023-07-29T01:04:40;21.33;;;17.05;;
18114;SDS011;9184;54.390;18.620;2023-07-29T01:05:11;21.55;;;17.45;;
18114;SDS011;9184;54.390;18.620;2023-07-29T01:05:45;21.40;;;16.77;;
18114;SDS011;9184;54.390;18.620;2023-07-29T01:06:21;21.20;;;16.85;;
18114;SDS011;9184;54.390;18.620;2023-07-29T01:06:58;21.75;;;17.75;;
18114;SDS011;9184;54.390;18.620;2023-07-29T01:07:30;21.17;;;17.85;;
18114;SDS011;9184;54.390;18.620;2023-07-29T01:08:04;24.23;;;18.10;;
18114;SDS011;9184;54.390;18.620;2023-07-29T01:08:38;23.45;;;17.77;;
18114;SDS011;9184;54.390;18.620;2023-07-29T01:09:14;22.38;;;17.77;;
18114;SDS011;9184;54.390;18.620;2023-07-29T01:09:50;20.38;;;17.85;;
18114;SDS011;9184;54.390;18.620;2023-07-29T01:10:26;22.42;;;17.92;;
18114;SDS011;9184;54.390;18.620;2023-07-29T01:11:01;25.08;;;18.92;;
18114;SDS011;9184;54.390;18.620;2023-07-29T01:11:37;20.67;;;17.55;;
18114;SDS011;9184;54.390;18.620;2023-07-29T01:12:11;23.40;;;17.95;;
18114;SDS011;9184;54.390;18.620;2023-07-29T01:12:49;24.70;;;18.15;;
18114;SDS011;9184;54.390;18.620;2023-07-29T01:13:22;21.02;;;17.33;;
18114;SDS011;9184;54.390;18.620;2023-07-29T01:13:58;21.55;;;18.00;;
18114;SDS011;9184;54.390;18.620;2023-07-29T01:14:39;21.88;;;18.35;;
18114;SDS011;9184;54.390;18.620;2023-07-29T01:15:13;24.55;;;18.45;;
18114;SDS011;9184;54.390;18.620;2023-07-29T01:15:47;21.95;;;17.60;;
18114;SDS011;9184;54.390;18.620;2023-07-29T01:16:20;21.75;;;18.05;;
18114;SDS011;9184;54.390;18.620;2023-07-29T01:16:55;22.90;;;18.95;;
18114;SDS011;9184;54.390;18.620;2023-07-29T01:17:29;22.55;;;19.27;;
18114;SDS011;9184;54.390;18.620;2023-07-29T01:18:02;23.48;;;18.15;;
18114;SDS011;9184;54.390;18.620;2023-07-29T01:18:35;22.20;;;17.50;;
18114;SDS011;9184;54.390;18.620;2023-07-29T01:19:06;21.40;;;17.42;;
18114;SDS011;9184;54.390;18.620;2023-07-29T01:19:48;23.50;;;18.42;;
18114;SDS011;9184;54.390;18.620;2023-07-29T01:20:23;22.65;;;18.30;;
18114;SDS011;9184;54.390;18.620;2023-07-29T01:20:59;24.35;;;18.45;;
18114;SDS011;9184;54.390;18.620;2023-07-29T01:21:30;23.70;;;18.23;;
18114;SDS011;9184;54.390;18.620;2023-07-29T01:22:02;25.10;;;18.52;;
18114;SDS011;9184;54.390;18.620;2023-07-29T01:22:33;25.90;;;19.98;;
18114;SDS011;9184;54.390;18.620;2023-07-29T01:23:04;23.10;;;18.88;;
18114;SDS011;9184;54.390;18.620;2023-07-29T01:23:36;22.42;;;18.02;;
18114;SDS011;9184;54.390;18.620;2023-07-29T01:24:07;20.70;;;17.00;;
18114;SDS011;9184;54.390;18.620;2023-07-29T01:24:38;24.30;;;17.33;;
18114;SDS011;9184;54.390;18.620;2023-07-29T01:25:08;23.02;;;17.65;;
18114;SDS011;9184;54.390;18.620;2023-07-29T01:25:39;23.45;;;17.70;;
18114;SDS011;9184;54.390;18.620;2023-07-29T01:26:10;24.13;;;19.35;;
18114;SDS011;9184;54.390;18.620;2023-07-29T01:26:41;20.40;;;17.90;;
18114;SDS011;9184;54.390;18.620;2023-07-29T01:27:11;24.30;;;19.00;;
18114;SDS011;9184;54.390;18.620;2023-07-29T01:27:42;23.00;;;18.80;;
18114;SDS011;9184;54.390;18.620;2023-07-29T01:28:14;28.23;;;19.08;;
18114;SDS011;9184;54.390;18.620;2023-07-29T01:28:44;22.58;;;19.20;;
18114;SDS011;9184;54.390;18.620;2023-07-29T01:29:15;26.85;;;18.95;;
18114;SDS011;9184;54.390;18.620;2023-07-29T01:29:45;25.20;;;18.92;;
18114;SDS011;9184;54.390;18.620;2023-07-29T01:30:17;23.17;;;18.38;;
18114;SDS011;9184;54.390;18.620;2023-07-29T01:30:48;23.85;;;19.20;;
18114;SDS011;9184;54.390;18.620;2023-07-29T01:31:20;21.02;;;18.80;;
18114;SDS011;9184;54.390;18.620;2023-07-29T01:32:54;24.17;;;18.42;;
18114;SDS011;9184;54.390;18.620;2023-07-29T01:33:25;22.30;;;18.30;;
18114;SDS011;9184;54.390;18.620;2023-07-29T01:33:57;24.75;;;17.92;;
18114;SDS011;9184;54.390;18.620;2023-07-29T01:34:29;27.33;;;19.33;;
18114;SDS011;9184;54.390;18.620;2023-07-29T01:35:02;24.45;;;19.20;;
18114;SDS011;9184;54.390;18.620;2023-07-29T01:35:35;24.88;;;19.67;;
18114;SDS011;9184;54.390;18.620;2023-07-29T01:36:06;25.95;;;20.95;;
18114;SDS011;9184;54.390;18.620;2023-07-29T01:36:39;24.08;;;19.73;;
18114;SDS011;9184;54.390;18.620;2023-07-29T01:37:12;24.90;;;19.50;;
18114;SDS011;9184;54.390;18.620;2023-07-29T01:37:48;28.17;;;19.98;;
18114;SDS011;9184;54.390;18.620;2023-07-29T01:38:19;26.00;;;19.40;;
18114;SDS011;9184;54.390;18.620;2023-07-29T01:38:52;25.27;;;20.20;;
18114;SDS011;9184;54.390;18.620;2023-07-29T01:39:24;24.08;;;19.52;;
18114;SDS011;9184;54.390;18.620;2023-07-29T01:39:57;23.70;;;18.52;;
18114;SDS011;9184;54.390;18.620;2023-07-29T01:40:29;26.65;;;19.67;;
18114;SDS011;9184;54.390;18.620;2023-07-29T01:40:59;24.30;;;19.58;;
18114;SDS011;9184;54.390;18.620;2023-07-29T01:41:31;24.70;;;19.30;;
18114;SDS011;9184;54.390;18.620;2023-07-29T01:42:04;23.90;;;19.95;;
18114;SDS011;9184;54.390;18.620;2023-07-29T01:42:34;23.20;;;19.05;;
18114;SDS011;9184;54.390;18.620;2023-07-29T01:43:05;23.80;;;20.67;;
18114;SDS011;9184;54.390;18.620;2023-07-29T01:43:37;25.45;;;19.20;;
18114;SDS011;9184;54.390;18.620;2023-07-29T01:44:13;21.73;;;18.52;;
18114;SDS011;9184;54.390;18.620;2023-07-29T01:44:44;26.10;;;18.73;;
18114;SDS011;9184;54.390;18.620;2023-07-29T01:45:15;23.50;;;18.30;;
18114;SDS011;9184;54.390;18.620;2023-07-29T01:45:45;24.63;;;19.42;;
18114;SDS011;9184;54.390;18.620;2023-07-29T01:46:16;25.20;;;19.05;;
18114;SDS011;9184;54.390;18.620;2023-07-29T01:46:47;23.25;;;18.42;;
18114;SDS011;9184;54.390;18.620;2023-07-29T01:47:17;25.50;;;18.27;;
18114;SDS011;9184;54.390;18.620;2023-07-29T01:47:48;26.50;;;18.67;;
18114;SDS011;9184;54.390;18.620;2023-07-29T01:48:19;25.52;;;18.85;;
18114;SDS011;9184;54.390;18.620;2023-07-29T01:48:50;22.50;;;18.80;;
18114;SDS011;9184;54.390;18.620;2023-07-29T01:49:20;25.52;;;18.52;;
18114;SDS011;9184;54.390;18.620;2023-07-29T01:49:51;27.55;;;18.83;;
18114;SDS011;9184;54.390;18.620;2023-07-29T01:50:22;25.15;;;19.27;;
18114;SDS011;9184;54.390;18.620;2023-07-29T01:50:53;26.63;;;19.67;;
18114;SDS011;9184;54.390;18.620;2023-07-29T01:51:23;24.70;;;20.27;;
18114;SDS011;9184;54.390;18.620;2023-07-29T01:51:54;22.58;;;17.95;;
18114;SDS011;9184;54.390;18.620;2023-07-29T01:52:25;23.65;;;19.85;;
18114;SDS011;9184;54.390;18.620;2023-07-29T01:52:55;23.15;;;19.25;;
18114;SDS011;9184;54.390;18.620;2023-07-29T01:53:27;21.85;;;19.45;;
18114;SDS011;9184;54.390;18.620;2023-07-29T01:53:59;30.80;;;20.52;;
18114;SDS011;9184;54.390;18.620;2023-07-29T01:54:29;24.52;;;19.65;;
18114;SDS011;9184;54.390;18.620;2023-07-29T01:55:00;24.98;;;20.52;;
18114;SDS011;9184;54.390;18.620;2023-07-29T01:55:31;23.90;;;20.27;;
18114;SDS011;9184;54.390;18.620;2023-07-29T01:56:02;27.50;;;20.15;;
18114;SDS011;9184;54.390;18.620;2023-07-29T01:56:32;25.08;;;20.08;;
18114;SDS011;9184;54.390;18.620;2023-07-29T01:57:04;23.25;;;19.98;;
18114;SDS011;9184;54.390;18.620;2023-07-29T01:57:34;23.70;;;19.30;;
18114;SDS011;9184;54.390;18.620;2023-07-29T01:58:05;24.55;;;19.92;;
18114;SDS011;9184;54.390;18.620;2023-07-29T01:58:35;24.67;;;19.67;;
18114;SDS011;9184;54.390;18.620;2023-07-29T01:59:06;25.63;;;19.35;;
18114;SDS011;9184;54.390;18.620;2023-07-29T01:59:37;23.88;;;20.15;;
18114;SDS011;9184;54.390;18.620;2023-07-29T02:00:08;22.58;;;19.55;;
18114;SDS011;9184;54.390;18.620;2023-07-29T02:00:44;26.98;;;20.55;;
18114;SDS011;9184;54.390;18.620;2023-07-29T02:01:15;22.88;;;18.95;;
18114;SDS011;9184;54.390;18.620;2023-07-29T02:01:46;26.58;;;21.05;;
18114;SDS011;9184;54.390;18.620;2023-07-29T02:02:17;24.55;;;18.65;;
18114;SDS011;9184;54.390;18.620;2023-07-29T02:02:47;27.15;;;21.00;;
18114;SDS011;9184;54.390;18.620;2023-07-29T02:03:18;25.58;;;19.27;;
18114;SDS011;9184;54.390;18.620;2023-07-29T02:03:49;24.10;;;19.58;;
18114;SDS011;9184;54.390;18.620;2023-07-29T02:04:25;23.55;;;19.50;;
18114;SDS011;9184;54.390;18.620;2023-07-29T02:04:55;26.52;;;19.27;;
18114;SDS011;9184;54.390;18.620;2023-07-29T02:05:26;26.08;;;20.92;;
18114;SDS011;9184;54.390;18.620;2023-07-29T02:05:57;23.63;;;19.35;;
18114;SDS011;9184;54.390;18.620;2023-07-29T02:06:27;26.65;;;19.73;;
18114;SDS011;9184;54.390;18.620;2023-07-29T02:06:58;30.35;;;19.73;;
18114;SDS011;9184;54.390;18.620;2023-07-29T02:07:28;24.58;;;20.80;;
18114;SDS011;9184;54.390;18.620;2023-07-29T02:08:00;24.08;;;19.27;;
18114;SDS011;9184;54.390;18.620;2023-07-29T02:08:30;24.20;;;20.05;;
18114;SDS011;9184;54.390;18.620;2023-07-29T02:09:02;25.58;;;20.60;;
18114;SDS011;9184;54.390;18.620;2023-07-29T02:09:34;22.85;;;20.38;;
18114;SDS011;9184;54.390;18.620;2023-07-29T02:10:06;24.85;;;21.13;;
18114;SDS011;9184;54.390;18.620;2023-07-29T02:10:37;26.50;;;20.45;;
18114;SDS011;9184;54.390;18.620;2023-07-29T02:11:08;27.52;;;19.48;;
18114;SDS011;9184;54.390;18.620;2023-07-29T02:11:38;27.00;;;21.08;;
18114;SDS011;9184;54.390;18.620;2023-07-29T02:12:10;25.90;;;21.00;;
18114;SDS011;9184;54.390;18.620;2023-07-29T02:12:40;22.63;;;19.30;;
18114;SDS011;9184;54.390;18.620;2023-07-29T02:13:11;25.13;;;19.75;;
18114;SDS011;9184;54.390;18.620;2023-07-29T02:13:41;25.17;;;19.52;;
18114;SDS011;9184;54.390;18.620;2023-07-29T02:14:14;23.42;;;19.85;;
18114;SDS011;9184;54.390;18.620;2023-07-29T02:14:44;26.20;;;21.02;;
18114;SDS011;9184;54.390;18.620;2023-07-29T02:15:14;25.88;;;20.30;;
18114;SDS011;9184;54.390;18.620;2023-07-29T02:15:46;26.25;;;20.52;;
18114;SDS011;9184;54.390;18.620;2023-07-29T02:16:16;30.70;;;21.35;;
18114;SDS011;9184;54.390;18.620;2023-07-29T02:16:47;29.90;;;22.42;;
18114;SDS011;9184;54.390;18.620;2023-07-29T02:17:17;23.90;;;20.05;;
18114;SDS011;9184;54.390;18.620;2023-07-29T02:17:49;25.70;;;20.75;;
18114;SDS011;9184;54.390;18.620;2023-07-29T02:18:21;25.55;;;20.10;;
18114;SDS011;9184;54.390;18.620;2023-07-29T02:18:52;23.67;;;19.73;;
18114;SDS011;9184;54.390;18.620;2023-07-29T02:19:22;27.58;;;20.75;;
18114;SDS011;9184;54.390;18.620;2023-07-29T02:19:53;23.98;;;19.45;;
18114;SDS011;9184;54.390;18.620;2023-07-29T02:20:24;25.45;;;20.73;;
18114;SDS011;9184;54.390;18.620;2023-07-29T02:20:54;24.27;;;20.02;;
18114;SDS011;9184;54.390;18.620;2023-07-29T02:21:25;23.48;;;20.90;;
18114;SDS011;9184;54.390;18.620;2023-07-29T02:21:55;27.05;;;20.98;;
18114;SDS011;9184;54.390;18.620;2023-07-29T02:22:27;26.85;;;21.48;;
18114;SDS011;9184;54.390;18.620;2023-07-29T02:22:57;22.67;;;19.98;;
18114;SDS011;9184;54.390;18.620;2023-07-29T02:23:28;25.52;;;20.92;;
18114;SDS011;9184;54.390;18.620;2023-07-29T02:23:58;29.15;;;21.55;;
18114;SDS011;9184;54.390;18.620;2023-07-29T02:24:31;24.85;;;20.17;;
18114;SDS011;9184;54.390;18.620;2023-07-29T02:25:02;27.40;;;21.00;;
18114;SDS011;9184;54.390;18.620;2023-07-29T02:25:34;34.13;;;21.65;;
18114;SDS011;9184;54.390;18.620;2023-07-29T02:26:06;28.85;;;20.85;;
18114;SDS011;9184;54.390;18.620;2023-07-29T02:26:36;26.45;;;21.20;;
18114;SDS011;9184;54.390;18.620;2023-07-29T02:27:07;28.60;;;21.10;;
18114;SDS011;9184;54.390;18.620;2023-07-29T02:27:37;27.67;;;21.00;;
18114;SDS011;9184;54.390;18.620;2023-07-29T02:28:09;27.83;;;20.98;;
18114;SDS011;9184;54.390;18.620;2023-07-29T02:28:39;26.88;;;20.45;;
18114;SDS011;9184;54.390;18.620;2023-07-29T02:29:09;28.27;;;20.00;;
18114;SDS011;9184;54.390;18.620;2023-07-29T02:29:40;25.73;;;20.15;;
18114;SDS011;9184;54.390;18.620;2023-07-29T02:30:11;26.63;;;20.48;;
18114;SDS011;9184;54.390;18.620;2023-07-29T02:30:42;23.23;;;20.23;;
18114;SDS011;9184;54.390;18.620;2023-07-29T02:31:15;27.05;;;20.15;;
18114;SDS011;9184;54.390;18.620;2023-07-29T02:31:46;25.67;;;19.67;;
18114;SDS011;9184;54.390;18.620;2023-07-29T02:32:17;25.17;;;20.05;;
18114;SDS011;9184;54.390;18.620;2023-07-29T02:32:49;27.88;;;20.80;;
18114;SDS011;9184;54.390;18.620;2023-07-29T02:33:19;28.60;;;20.52;;
18114;SDS011;9184;54.390;18.620;2023-07-29T02:33:50;24.40;;;20.17;;
18114;SDS011;9184;54.390;18.620;2023-07-29T02:34:21;23.58;;;19.80;;
18114;SDS011;9184;54.390;18.620;2023-07-29T02:34:52;23.83;;;19.85;;
18114;SDS011;9184;54.390;18.620;2023-07-29T02:35:22;24.63;;;19.30;;
18114;SDS011;9184;54.390;18.620;2023-07-29T02:35:53;27.92;;;21.15;;
18114;SDS011;9184;54.390;18.620;2023-07-29T02:36:26;23.55;;;19.50;;
18114;SDS011;9184;54.390;18.620;2023-07-29T02:36:56;28.90;;;19.73;;
18114;SDS011;9184;54.390;18.620;2023-07-29T02:37:27;26.67;;;20.70;;
18114;SDS011;9184;54.390;18.620;2023-07-29T02:37:57;25.05;;;19.98;;
18114;SDS011;9184;54.390;18.620;2023-07-29T02:38:29;25.40;;;20.70;;
18114;SDS011;9184;54.390;18.620;2023-07-29T02:38:59;24.88;;;20.45;;
18114;SDS011;9184;54.390;18.620;2023-07-29T02:39:31;27.35;;;20.45;;
18114;SDS011;9184;54.390;18.620;2023-07-29T02:40:02;25.58;;;20.20;;
18114;SDS011;9184;54.390;18.620;2023-07-29T02:40:33;24.38;;;19.42;;
18114;SDS011;9184;54.390;18.620;2023-07-29T02:41:05;26.63;;;20.92;;
18114;SDS011;9184;54.390;18.620;2023-07-29T02:41:35;25.88;;;20.45;;
18114;SDS011;9184;54.390;18.620;2023-07-29T02:42:06;30.23;;;21.52;;
18114;SDS011;9184;54.390;18.620;2023-07-29T02:42:36;26.52;;;19.92;;
18114;SDS011;9184;54.390;18.620;2023-07-29T02:43:08;27.15;;;19.25;;
18114;SDS011;9184;54.390;18.620;2023-07-29T02:43:39;27.95;;;19.10;;
18114;SDS011;9184;54.390;18.620;2023-07-29T02:44:11;25.17;;;20.42;;
18114;SDS011;9184;54.390;18.620;2023-07-29T02:44:41;27.55;;;20.95;;
18114;SDS011;9184;54.390;18.620;2023-07-29T02:45:13;25.50;;;20.80;;
18114;SDS011;9184;54.390;18.620;2023-07-29T02:45:43;27.05;;;20.17;;
18114;SDS011;9184;54.390;18.620;2023-07-29T02:46:14;24.60;;;21.35;;
18114;SDS011;9184;54.390;18.620;2023-07-29T02:46:44;28.85;;;21.30;;
18114;SDS011;9184;54.390;18.620;2023-07-29T02:47:16;26.92;;;21.55;;
18114;SDS011;9184;54.390;18.620;2023-07-29T02:47:46;25.80;;;20.33;;
18114;SDS011;9184;54.390;18.620;2023-07-29T02:48:17;28.40;;;21.20;;
18114;SDS011;9184;54.390;18.620;2023-07-29T02:48:49;24.45;;;20.77;;
18114;SDS011;9184;54.390;18.620;2023-07-29T02:49:19;28.98;;;21.60;;
18114;SDS011;9184;54.390;18.620;2023-07-29T02:49:50;25.02;;;21.02;;
18114;SDS011;9184;54.390;18.620;2023-07-29T02:51:46;27.30;;;20.17;;
18114;SDS011;9184;54.390;18.620;2023-07-29T02:52:18;24.23;;;20.17;;
18114;SDS011;9184;54.390;18.620;2023-07-29T02:52:48;25.35;;;20.65;;
18114;SDS011;9184;54.390;18.620;2023-07-29T02:53:19;26.95;;;21.17;;
18114;SDS011;9184;54.390;18.620;2023-07-29T02:53:49;29.20;;;21.35;;
18114;SDS011;9184;54.390;18.620;2023-07-29T02:54:21;28.77;;;21.48;;
18114;SDS011;9184;54.390;18.620;2023-07-29T02:54:52;25.88;;;21.67;;
18114;SDS011;9184;54.390;18.620;2023-07-29T02:55:23;28.33;;;22.17;;
18114;SDS011;9184;54.390;18.620;2023-07-29T02:55:53;29.20;;;21.48;;
18114;SDS011;9184;54.390;18.620;2023-07-29T02:56:24;28.65;;;21.50;;
18114;SDS011;9184;54.390;18.620;2023-07-29T02:56:56;26.38;;;21.48;;
18114;SDS011;9184;54.390;18.620;2023-07-29T02:57:26;27.63;;;22.13;;
18114;SDS011;9184;54.390;18.620;2023-07-29T02:57:56;26.50;;;21.52;;
18114;SDS011;9184;54.390;18.620;2023-07-29T02:58:27;27.70;;;22.65;;
18114;SDS011;9184;54.390;18.620;2023-07-29T02:58:58;26.10;;;21.42;;
18114;SDS011;9184;54.390;18.620;2023-07-29T02:59:29;25.73;;;20.65;;
18114;SDS011;9184;54.390;18.620;2023-07-29T03:00:00;26.40;;;21.50;;
18114;SDS011;9184;54.390;18.620;2023-07-29T03:00:31;24.70;;;21.05;;
18114;SDS011;9184;54.390;18.620;2023-07-29T03:01:03;23.77;;;20.58;;
18114;SDS011;9184;54.390;18.620;2023-07-29T03:01:34;26.85;;;22.15;;
18114;SDS011;9184;54.390;18.620;2023-07-29T03:02:04;26.38;;;22.25;;
18114;SDS011;9184;54.390;18.620;2023-07-29T03:02:36;26.88;;;21.55;;
18114;SDS011;9184;54.390;18.620;2023-07-29T03:03:06;27.55;;;21.30;;
18114;SDS011;9184;54.390;18.620;2023-07-29T03:03:37;25.95;;;21.45;;
18114;SDS011;9184;54.390;18.620;2023-07-29T03:04:08;24.98;;;21.38;;
18114;SDS011;9184;54.390;18.620;2023-07-29T03:04:39;27.05;;;22.83;;
18114;SDS011;9184;54.390;18.620;2023-07-29T03:05:09;26.55;;;20.80;;
18114;SDS011;9184;54.390;18.620;2023-07-29T03:05:40;24.73;;;19.95;;